createdAt,value
2019-01-26T00:00:44.434Z,1004.31
2019-01-26T00:01:44.421Z,1004.34
2019-01-26T00:02:44.410Z,1004.31
2019-01-26T00:03:44.425Z,1004.34
2019-01-26T00:04:44.393Z,1004.36
2019-01-26T00:05:44.379Z,1004.34
2019-01-26T00:06:44.366Z,1004.32
2019-01-26T00:07:44.354Z,1004.35
2019-01-26T00:08:44.368Z,1004.29
2019-01-26T00:09:44.333Z,1004.28
2019-01-26T00:10:44.322Z,1004.29
2019-01-26T00:11:44.311Z,1004.26
2019-01-26T00:12:44.298Z,1004.27
2019-01-26T00:13:44.311Z,1004.23
2019-01-26T00:14:44.276Z,1004.25
2019-01-26T00:15:44.324Z,1004.23
2019-01-26T00:16:44.255Z,1004.22
2019-01-26T00:17:44.245Z,1004.24
2019-01-26T00:18:44.260Z,1004.23
2019-01-26T00:19:44.222Z,1004.17
2019-01-26T00:20:44.211Z,1004.13
2019-01-26T00:21:44.200Z,1004.11
2019-01-26T00:22:44.188Z,1004.04
2019-01-26T00:23:44.201Z,1004.02
2019-01-26T00:24:44.166Z,1004.07
2019-01-26T00:25:44.157Z,1004.07
2019-01-26T00:26:44.145Z,1004.02
2019-01-26T00:27:44.134Z,1004.08
2019-01-26T00:28:44.147Z,1004.09
2019-01-26T00:29:44.114Z,1004.05
2019-01-26T00:30:44.100Z,1004.07
2019-01-26T00:31:44.089Z,1004.08
2019-01-26T00:32:44.079Z,1004.05
2019-01-26T00:33:44.070Z,1004.10
2019-01-26T00:34:44.084Z,1004.09
2019-01-26T00:35:44.049Z,1004.08
2019-01-26T00:36:44.035Z,1004.16
2019-01-26T00:37:44.027Z,1004.15
2019-01-26T00:38:44.042Z,1004.15
2019-01-26T00:39:45.105Z,1004.15
2019-01-26T00:40:43.989Z,1004.18
2019-01-26T00:41:43.979Z,1004.16
2019-01-26T00:42:43.969Z,1004.20
2019-01-26T00:43:43.960Z,1004.20
2019-01-26T00:44:43.971Z,1004.15
2019-01-26T00:45:43.934Z,1004.14
2019-01-26T00:46:43.924Z,1004.15
2019-01-26T00:47:43.912Z,1004.13
2019-01-26T00:48:43.903Z,1004.18
2019-01-26T00:49:43.916Z,1004.11
2019-01-26T00:50:43.881Z,1004.12
2019-01-26T00:51:43.870Z,1004.13
2019-01-26T00:52:43.859Z,1004.14
2019-01-26T00:53:43.851Z,1004.09
2019-01-26T00:54:43.861Z,1004.05
2019-01-26T00:55:43.827Z,1004.04
2019-01-26T00:56:43.818Z,1004.00
2019-01-26T00:57:43.805Z,1004.03
2019-01-26T00:58:43.794Z,1004.07
2019-01-26T00:59:43.808Z,1004.07
2019-01-26T01:00:43.773Z,1004.02
2019-01-26T01:01:43.763Z,1004.04
2019-01-26T01:02:43.752Z,1004.04
2019-01-26T01:03:43.742Z,1004.00
2019-01-26T01:04:43.754Z,1003.97
2019-01-26T01:05:43.718Z,1003.95
2019-01-26T01:06:43.708Z,1003.92
2019-01-26T01:07:43.772Z,1003.86
2019-01-26T01:08:43.685Z,1003.88
2019-01-26T01:09:43.764Z,1003.92
2019-01-26T01:10:43.663Z,1003.95
2019-01-26T01:11:43.660Z,1003.93
2019-01-26T01:12:43.643Z,1003.93
2019-01-26T01:13:43.631Z,1003.90
2019-01-26T01:14:43.648Z,1003.84
2019-01-26T01:15:43.610Z,1003.89
2019-01-26T01:16:43.600Z,1003.81
2019-01-26T01:17:43.634Z,1003.82
2019-01-26T01:18:43.578Z,1003.78
2019-01-26T01:19:43.591Z,1003.83
2019-01-26T01:20:43.603Z,1003.89
2019-01-26T01:21:43.586Z,1003.86
2019-01-26T01:22:43.538Z,1003.84
2019-01-26T01:23:43.602Z,1003.90
2019-01-26T01:24:43.536Z,1003.88
2019-01-26T01:25:43.503Z,1003.85
2019-01-26T01:26:43.490Z,1003.87
2019-01-26T01:27:43.485Z,1003.84
2019-01-26T01:28:43.469Z,1003.86
2019-01-26T01:29:43.485Z,1003.91
2019-01-26T01:30:43.452Z,1003.86
2019-01-26T01:31:43.437Z,1003.85
2019-01-26T01:32:43.424Z,1003.87
2019-01-26T01:33:43.419Z,1003.85
2019-01-26T01:34:43.459Z,1003.89
2019-01-26T01:35:43.391Z,1003.82
2019-01-26T01:36:43.380Z,1003.82
2019-01-26T01:37:43.370Z,1003.81
2019-01-26T01:38:43.359Z,1003.89
2019-01-26T01:39:43.402Z,1003.80
2019-01-26T01:40:43.334Z,1003.78
2019-01-26T01:41:43.323Z,1003.82
2019-01-26T01:42:43.314Z,1003.83
2019-01-26T01:43:43.301Z,1003.82
2019-01-26T01:44:43.314Z,1003.82
2019-01-26T01:45:43.277Z,1003.88
2019-01-26T01:46:43.267Z,1003.82
2019-01-26T01:47:43.358Z,1003.83
2019-01-26T01:48:43.245Z,1003.81
2019-01-26T01:49:43.258Z,1003.83
2019-01-26T01:50:43.220Z,1003.81
2019-01-26T01:51:43.210Z,1003.83
2019-01-26T01:52:43.250Z,1003.88
2019-01-26T01:53:43.188Z,1003.85
2019-01-26T01:54:43.201Z,1003.87
2019-01-26T01:55:43.165Z,1003.85
2019-01-26T01:56:43.157Z,1003.83
2019-01-26T01:57:43.145Z,1003.79
2019-01-26T01:58:43.132Z,1003.80
2019-01-26T01:59:43.144Z,1003.74
2019-01-26T02:00:43.112Z,1003.69
2019-01-26T02:01:43.103Z,1003.69
2019-01-26T02:02:43.086Z,1003.76
2019-01-26T02:03:43.078Z,1003.73
2019-01-26T02:04:43.088Z,1003.76
2019-01-26T02:05:43.053Z,1003.73
2019-01-26T02:06:43.042Z,1003.66
2019-01-26T02:07:43.030Z,1003.69
2019-01-26T02:08:43.018Z,1003.71
2019-01-26T02:09:43.032Z,1003.67
2019-01-26T02:10:42.995Z,1003.59
2019-01-26T02:11:42.984Z,1003.67
2019-01-26T02:12:42.974Z,1003.60
2019-01-26T02:13:42.962Z,1003.62
2019-01-26T02:14:42.960Z,1003.63
2019-01-26T02:15:42.963Z,1003.60
2019-01-26T02:16:42.928Z,1003.54
2019-01-26T02:17:42.919Z,1003.56
2019-01-26T02:18:42.904Z,1003.55
2019-01-26T02:19:42.895Z,1003.51
2019-01-26T02:20:42.904Z,1003.50
2019-01-26T02:21:42.870Z,1003.49
2019-01-26T02:22:42.859Z,1003.44
2019-01-26T02:23:42.848Z,1003.47
2019-01-26T02:24:42.838Z,1003.41
2019-01-26T02:25:42.855Z,1003.34
2019-01-26T02:26:42.814Z,1003.37
2019-01-26T02:27:42.804Z,1003.39
2019-01-26T02:28:42.790Z,1003.39
2019-01-26T02:29:42.787Z,1003.35
2019-01-26T02:30:42.796Z,1003.37
2019-01-26T02:31:42.760Z,1003.33
2019-01-26T02:32:42.747Z,1003.28
2019-01-26T02:33:42.735Z,1003.38
2019-01-26T02:34:42.725Z,1003.33
2019-01-26T02:35:42.738Z,1003.36
2019-01-26T02:36:42.701Z,1003.26
2019-01-26T02:37:42.692Z,1003.32
2019-01-26T02:38:42.679Z,1003.39
2019-01-26T02:39:42.667Z,1003.34
2019-01-26T02:40:42.683Z,1003.34
2019-01-26T02:41:42.647Z,1003.37
2019-01-26T02:42:42.634Z,1003.34
2019-01-26T02:43:42.626Z,1003.34
2019-01-26T02:44:42.612Z,1003.34
2019-01-26T02:45:42.624Z,1003.33
2019-01-26T02:46:42.589Z,1003.31
2019-01-26T02:47:42.582Z,1003.32
2019-01-26T02:48:42.567Z,1003.37
2019-01-26T02:49:42.555Z,1003.30
2019-01-26T02:50:42.574Z,1003.34
2019-01-26T02:51:42.534Z,1003.38
2019-01-26T02:52:42.524Z,1003.37
2019-01-26T02:53:42.511Z,1003.33
2019-01-26T02:54:42.500Z,1003.35
2019-01-26T02:55:42.511Z,1003.42
2019-01-26T02:56:42.477Z,1003.44
2019-01-26T02:57:42.464Z,1003.39
2019-01-26T02:58:42.453Z,1003.39
2019-01-26T02:59:42.445Z,1003.35
2019-01-26T03:00:42.459Z,1003.36
2019-01-26T03:01:42.421Z,1003.35
2019-01-26T03:02:42.412Z,1003.38
2019-01-26T03:03:42.398Z,1003.36
2019-01-26T03:04:42.386Z,1003.35
2019-01-26T03:05:42.400Z,1003.34
2019-01-26T03:06:42.363Z,1003.34
2019-01-26T03:07:42.351Z,1003.31
2019-01-26T03:08:42.342Z,1003.33
2019-01-26T03:09:42.330Z,1003.41
2019-01-26T03:10:42.344Z,1003.40
2019-01-26T03:11:42.307Z,1003.36
2019-01-26T03:12:42.297Z,1003.43
2019-01-26T03:13:42.283Z,1003.35
2019-01-26T03:14:42.271Z,1003.37
2019-01-26T03:15:42.287Z,1003.37
2019-01-26T03:16:42.248Z,1003.39
2019-01-26T03:17:42.240Z,1003.37
2019-01-26T03:18:42.226Z,1003.33
2019-01-26T03:19:42.216Z,1003.40
2019-01-26T03:20:42.228Z,1003.35
2019-01-26T03:21:42.192Z,1003.34
2019-01-26T03:22:42.181Z,1003.33
2019-01-26T03:23:42.171Z,1003.28
2019-01-26T03:24:42.158Z,1003.26
2019-01-26T03:25:42.171Z,1003.31
2019-01-26T03:26:42.139Z,1003.27
2019-01-26T03:27:42.124Z,1003.22
2019-01-26T03:28:42.114Z,1003.22
2019-01-26T03:29:42.102Z,1003.13
2019-01-26T03:30:42.125Z,1003.18
2019-01-26T03:31:42.080Z,1003.17
2019-01-26T03:32:42.077Z,1003.18
2019-01-26T03:33:42.057Z,1003.14
2019-01-26T03:34:42.045Z,1003.17
2019-01-26T03:35:42.059Z,1003.20
2019-01-26T03:36:42.023Z,1003.16
2019-01-26T03:37:42.017Z,1003.09
2019-01-26T03:38:42.000Z,1003.14
2019-01-26T03:39:41.991Z,1003.10
2019-01-26T03:40:42.002Z,1003.13
2019-01-26T03:41:41.966Z,1003.04
2019-01-26T03:42:41.965Z,1003.07
2019-01-26T03:43:41.946Z,1003.07
2019-01-26T03:44:41.934Z,1003.04
2019-01-26T03:45:41.946Z,1003.02
2019-01-26T03:46:41.910Z,1003.01
2019-01-26T03:47:41.898Z,1003.01
2019-01-26T03:48:41.888Z,1003.00
2019-01-26T03:49:41.876Z,1003.00
2019-01-26T03:50:41.889Z,1003.07
2019-01-26T03:51:41.854Z,1003.08
2019-01-26T03:52:41.843Z,1003.02
2019-01-26T03:53:41.832Z,1003.04
2019-01-26T03:54:41.821Z,1003.02
2019-01-26T03:55:41.832Z,1003.10
2019-01-26T03:56:41.796Z,1003.13
2019-01-26T03:57:41.784Z,1003.11
2019-01-26T03:58:41.782Z,1003.03
2019-01-26T03:59:41.761Z,1003.01
2019-01-26T04:00:41.753Z,1003.01
2019-01-26T04:01:41.767Z,1002.98
2019-01-26T04:02:41.731Z,1002.96
2019-01-26T04:03:41.718Z,1002.89
2019-01-26T04:04:41.707Z,1002.93
2019-01-26T04:05:41.697Z,1002.92
2019-01-26T04:06:41.709Z,1002.93
2019-01-26T04:07:41.674Z,1002.95
2019-01-26T04:08:41.664Z,1002.96
2019-01-26T04:09:41.651Z,1002.94
2019-01-26T04:10:41.648Z,1002.97
2019-01-26T04:11:41.659Z,1003.01
2019-01-26T04:12:41.617Z,1002.95
2019-01-26T04:13:41.608Z,1002.97
2019-01-26T04:14:41.599Z,1003.06
2019-01-26T04:15:41.587Z,1003.00
2019-01-26T04:16:41.598Z,1003.00
2019-01-26T04:17:41.571Z,1003.04
2019-01-26T04:18:41.550Z,1003.02
2019-01-26T04:19:41.540Z,1003.04
2019-01-26T04:20:41.530Z,1002.98
2019-01-26T04:21:41.542Z,1002.99
2019-01-26T04:22:41.507Z,1002.96
2019-01-26T04:23:41.496Z,1003.00
2019-01-26T04:24:41.485Z,1003.03
2019-01-26T04:25:41.475Z,1002.97
2019-01-26T04:26:41.487Z,1002.92
2019-01-26T04:27:41.452Z,1002.91
2019-01-26T04:28:41.443Z,1002.92
2019-01-26T04:29:41.434Z,1002.91
2019-01-26T04:30:41.418Z,1002.91
2019-01-26T04:31:41.432Z,1002.95
2019-01-26T04:32:41.397Z,1002.90
2019-01-26T04:33:41.390Z,1002.89
2019-01-26T04:34:41.377Z,1002.85
2019-01-26T04:35:41.364Z,1002.89
2019-01-26T04:36:41.380Z,1002.91
2019-01-26T04:37:41.344Z,1002.95
2019-01-26T04:38:41.333Z,1002.96
2019-01-26T04:39:41.319Z,1002.92
2019-01-26T04:40:41.309Z,1002.96
2019-01-26T04:41:41.322Z,1002.97
2019-01-26T04:42:41.285Z,1002.96
2019-01-26T04:43:41.276Z,1003.00
2019-01-26T04:44:41.267Z,1002.94
2019-01-26T04:45:41.253Z,1002.91
2019-01-26T04:46:41.244Z,1002.92
2019-01-26T04:47:41.258Z,1002.93
2019-01-26T04:48:41.219Z,1002.87
2019-01-26T04:49:41.209Z,1002.84
2019-01-26T04:50:42.484Z,1002.90
2019-01-26T04:51:41.189Z,1002.92
2019-01-26T04:52:41.200Z,1002.95
2019-01-26T04:53:41.165Z,1002.94
2019-01-26T04:54:41.158Z,1002.92
2019-01-26T04:55:41.142Z,1002.93
2019-01-26T04:56:41.138Z,1002.91
2019-01-26T04:57:41.148Z,1002.93
2019-01-26T04:58:41.110Z,1002.95
2019-01-26T04:59:41.097Z,1002.94
2019-01-26T05:00:41.090Z,1002.87
2019-01-26T05:01:41.076Z,1002.93
2019-01-26T05:02:41.092Z,1002.94
2019-01-26T05:03:41.056Z,1002.84
2019-01-26T05:04:41.041Z,1002.88
2019-01-26T05:05:41.034Z,1002.90
2019-01-26T05:06:41.019Z,1002.86
2019-01-26T05:07:41.034Z,1002.85
2019-01-26T05:08:40.997Z,1002.89
2019-01-26T05:09:40.986Z,1002.84
2019-01-26T05:10:40.975Z,1002.79
2019-01-26T05:11:40.965Z,1002.85
2019-01-26T05:12:40.977Z,1002.83
2019-01-26T05:13:40.942Z,1002.86
2019-01-26T05:14:40.935Z,1002.82
2019-01-26T05:15:40.920Z,1002.83
2019-01-26T05:16:40.933Z,1002.81
2019-01-26T05:17:40.938Z,1002.82
2019-01-26T05:18:40.901Z,1002.77
2019-01-26T05:19:40.876Z,1002.85
2019-01-26T05:20:40.865Z,1002.81
2019-01-26T05:21:40.855Z,1002.85
2019-01-26T05:22:40.876Z,1002.79
2019-01-26T05:23:40.833Z,1002.80
2019-01-26T05:24:40.825Z,1002.82
2019-01-26T05:25:40.813Z,1002.85
2019-01-26T05:26:40.799Z,1002.85
2019-01-26T05:27:40.811Z,1002.88
2019-01-26T05:28:40.776Z,1002.89
2019-01-26T05:29:40.765Z,1002.85
2019-01-26T05:30:40.757Z,1002.86
2019-01-26T05:31:40.748Z,1002.87
2019-01-26T05:32:40.758Z,1002.82
2019-01-26T05:33:40.725Z,1002.85
2019-01-26T05:34:40.712Z,1002.87
2019-01-26T05:35:40.698Z,1002.86
2019-01-26T05:36:40.688Z,1002.89
2019-01-26T05:37:40.703Z,1002.95
2019-01-26T05:38:40.665Z,1002.88
2019-01-26T05:39:40.696Z,1002.93
2019-01-26T05:40:40.644Z,1002.89
2019-01-26T05:41:40.637Z,1002.91
2019-01-26T05:42:40.646Z,1002.88
2019-01-26T05:43:40.610Z,1002.89
2019-01-26T05:44:40.600Z,1002.88
2019-01-26T05:45:40.592Z,1002.89
2019-01-26T05:46:40.576Z,1002.83
2019-01-26T05:47:48.029Z,1002.82
2019-01-26T05:48:41.554Z,1002.82
2019-01-26T05:49:40.544Z,1002.83
2019-01-26T05:50:40.534Z,1002.83
2019-01-26T05:51:40.526Z,1002.82
2019-01-26T05:52:40.538Z,1002.82
2019-01-26T05:53:40.510Z,1002.83
2019-01-26T05:54:40.490Z,1002.82
2019-01-26T05:55:40.479Z,1002.78
2019-01-26T05:56:40.470Z,1002.78
2019-01-26T05:57:40.487Z,1002.76
2019-01-26T05:58:40.445Z,1002.76
2019-01-26T05:59:40.436Z,1002.76
2019-01-26T06:00:40.426Z,1002.73
2019-01-26T06:01:40.412Z,1002.73
2019-01-26T06:02:40.425Z,1002.72
2019-01-26T06:03:40.389Z,1002.65
2019-01-26T06:04:40.378Z,1002.63
2019-01-26T06:05:40.366Z,1002.58
2019-01-26T06:06:40.356Z,1002.62
2019-01-26T06:07:40.370Z,1002.57
2019-01-26T06:08:40.340Z,1002.57
2019-01-26T06:09:40.323Z,1002.55
2019-01-26T06:10:40.312Z,1002.58
2019-01-26T06:11:40.300Z,1002.48
2019-01-26T06:12:40.315Z,1002.55
2019-01-26T06:13:40.279Z,1002.52
2019-01-26T06:14:40.272Z,1002.40
2019-01-26T06:15:40.257Z,1002.40
2019-01-26T06:16:40.245Z,1002.40
2019-01-26T06:17:40.241Z,1002.46
2019-01-26T06:18:40.248Z,1002.44
2019-01-26T06:19:40.214Z,1002.45
2019-01-26T06:20:40.202Z,1002.46
2019-01-26T06:21:40.191Z,1002.44
2019-01-26T06:22:40.182Z,1002.48
2019-01-26T06:23:40.194Z,1002.53
2019-01-26T06:24:40.157Z,1002.54
2019-01-26T06:25:40.153Z,1002.46
2019-01-26T06:26:40.136Z,1002.48
2019-01-26T06:27:40.127Z,1002.54
2019-01-26T06:28:40.136Z,1002.57
2019-01-26T06:29:40.102Z,1002.53
2019-01-26T06:30:40.091Z,1002.58
2019-01-26T06:31:40.084Z,1002.59
2019-01-26T06:32:40.071Z,1002.58
2019-01-26T06:33:40.083Z,1002.56
2019-01-26T06:34:40.047Z,1002.53
2019-01-26T06:35:40.037Z,1002.54
2019-01-26T06:36:40.026Z,1002.55
2019-01-26T06:37:40.019Z,1002.58
2019-01-26T06:38:40.027Z,1002.53
2019-01-26T06:39:39.991Z,1002.58
2019-01-26T06:40:39.981Z,1002.57
2019-01-26T06:41:39.970Z,1002.55
2019-01-26T06:42:39.960Z,1002.55
2019-01-26T06:43:39.974Z,1002.54
2019-01-26T06:44:39.937Z,1002.59
2019-01-26T06:45:39.925Z,1002.48
2019-01-26T06:46:39.914Z,1002.49
2019-01-26T06:47:39.903Z,1002.50
2019-01-26T06:48:39.916Z,1002.53
2019-01-26T06:49:39.881Z,1002.51
2019-01-26T06:50:39.871Z,1002.52
2019-01-26T06:51:39.859Z,1002.52
2019-01-26T06:52:39.851Z,1002.51
2019-01-26T06:53:39.863Z,1002.51
2019-01-26T06:54:39.826Z,1002.49
2019-01-26T06:55:39.816Z,1002.46
2019-01-26T06:56:39.802Z,1002.46
2019-01-26T06:57:39.794Z,1002.48
2019-01-26T06:58:39.847Z,1002.44
2019-01-26T06:59:39.769Z,1002.47
2019-01-26T07:00:39.762Z,1002.50
2019-01-26T07:01:39.749Z,1002.48
2019-01-26T07:02:39.738Z,1002.45
2019-01-26T07:03:39.753Z,1002.43
2019-01-26T07:04:39.714Z,1002.41
2019-01-26T07:05:39.712Z,1002.43
2019-01-26T07:06:39.693Z,1002.44
2019-01-26T07:07:39.685Z,1002.39
2019-01-26T07:08:39.694Z,1002.40
2019-01-26T07:09:39.660Z,1002.38
2019-01-26T07:10:39.648Z,1002.35
2019-01-26T07:11:39.638Z,1002.32
2019-01-26T07:12:39.626Z,1002.30
2019-01-26T07:13:39.640Z,1002.34
2019-01-26T07:14:39.603Z,1002.35
2019-01-26T07:15:39.592Z,1002.40
2019-01-26T07:16:39.605Z,1002.40
2019-01-26T07:17:39.569Z,1002.38
2019-01-26T07:18:39.586Z,1002.45
2019-01-26T07:19:39.549Z,1002.36
2019-01-26T07:20:39.543Z,1002.36
2019-01-26T07:21:39.527Z,1002.35
2019-01-26T07:22:39.514Z,1002.30
2019-01-26T07:23:39.528Z,1002.33
2019-01-26T07:24:39.493Z,1002.33
2019-01-26T07:25:39.481Z,1002.30
2019-01-26T07:26:39.474Z,1002.31
2019-01-26T07:27:39.459Z,1002.23
2019-01-26T07:28:39.474Z,1002.26
2019-01-26T07:29:39.438Z,1002.28
2019-01-26T07:30:39.427Z,1002.30
2019-01-26T07:31:39.414Z,1002.30
2019-01-26T07:32:39.402Z,1002.41
2019-01-26T07:33:39.417Z,1002.42
2019-01-26T07:34:39.380Z,1002.39
2019-01-26T07:35:39.372Z,1002.40
2019-01-26T07:36:39.359Z,1002.43
2019-01-26T07:37:39.347Z,1002.48
2019-01-26T07:38:39.361Z,1002.53
2019-01-26T07:39:39.325Z,1002.57
2019-01-26T07:40:39.314Z,1002.55
2019-01-26T07:41:39.303Z,1002.54
2019-01-26T07:42:39.296Z,1002.53
2019-01-26T07:43:39.304Z,1002.56
2019-01-26T07:44:39.270Z,1002.58
2019-01-26T07:45:39.259Z,1002.54
2019-01-26T07:46:39.246Z,1002.54
2019-01-26T07:47:39.238Z,1002.56
2019-01-26T07:48:39.249Z,1002.52
2019-01-26T07:49:39.213Z,1002.50
2019-01-26T07:50:39.205Z,1002.47
2019-01-26T07:51:39.200Z,1002.49
2019-01-26T07:52:39.182Z,1002.45
2019-01-26T07:53:39.197Z,1002.51
2019-01-26T07:54:39.158Z,1002.51
2019-01-26T07:55:39.146Z,1002.49
2019-01-26T07:56:39.137Z,1002.47
2019-01-26T07:57:39.125Z,1002.48
2019-01-26T07:58:39.135Z,1002.46
2019-01-26T07:59:39.127Z,1002.44
2019-01-26T08:00:39.098Z,1002.45
2019-01-26T08:01:39.081Z,1002.45
2019-01-26T08:02:39.104Z,1002.46
2019-01-26T08:03:39.059Z,1002.40
2019-01-26T08:04:39.124Z,1002.41
2019-01-26T08:05:39.039Z,1002.42
2019-01-26T08:06:39.025Z,1002.33
2019-01-26T08:07:39.014Z,1002.36
2019-01-26T08:08:39.015Z,1002.34
2019-01-26T08:09:39.018Z,1002.32
2019-01-26T08:10:38.995Z,1002.31
2019-01-26T08:11:38.972Z,1002.32
2019-01-26T08:12:38.958Z,1002.42
2019-01-26T08:13:38.949Z,1002.34
2019-01-26T08:14:38.964Z,1002.37
2019-01-26T08:15:38.924Z,1002.37
2019-01-26T08:16:38.915Z,1002.40
2019-01-26T08:17:38.902Z,1002.43
2019-01-26T08:18:38.894Z,1002.46
2019-01-26T08:19:40.077Z,1002.49
2019-01-26T08:20:38.870Z,1002.52
2019-01-26T08:21:38.861Z,1002.46
2019-01-26T08:22:38.849Z,1002.47
2019-01-26T08:23:38.836Z,1002.47
2019-01-26T08:24:38.851Z,1002.46
2019-01-26T08:25:38.814Z,1002.51
2019-01-26T08:26:38.803Z,1002.50
2019-01-26T08:27:38.791Z,1002.48
2019-01-26T08:28:38.781Z,1002.50
2019-01-26T08:29:38.793Z,1002.46
2019-01-26T08:30:38.758Z,1002.41
2019-01-26T08:31:38.749Z,1002.40
2019-01-26T08:32:38.736Z,1002.40
2019-01-26T08:33:38.728Z,1002.43
2019-01-26T08:34:38.744Z,1002.37
2019-01-26T08:35:38.701Z,1002.37
2019-01-26T08:36:38.690Z,1002.37
2019-01-26T08:37:38.682Z,1002.35
2019-01-26T08:38:38.669Z,1002.37
2019-01-26T08:39:38.685Z,1002.34
2019-01-26T08:40:38.647Z,1002.28
2019-01-26T08:41:38.636Z,1002.32
2019-01-26T08:42:38.623Z,1002.30
2019-01-26T08:43:38.614Z,1002.27
2019-01-26T08:44:38.627Z,1002.26
2019-01-26T08:45:38.591Z,1002.28
2019-01-26T08:46:38.579Z,1002.27
2019-01-26T08:47:38.569Z,1002.32
2019-01-26T08:48:38.557Z,1002.24
2019-01-26T08:49:38.571Z,1002.24
2019-01-26T08:50:38.536Z,1002.25
2019-01-26T08:51:38.525Z,1002.29
2019-01-26T08:52:38.513Z,1002.31
2019-01-26T08:53:38.503Z,1002.26
2019-01-26T08:54:38.516Z,1002.26
2019-01-26T08:55:38.484Z,1002.23
2019-01-26T08:56:38.469Z,1002.31
2019-01-26T08:57:38.459Z,1002.29
2019-01-26T08:58:38.450Z,1002.32
2019-01-26T08:59:38.465Z,1002.32
2019-01-26T09:00:38.424Z,1002.32
2019-01-26T09:01:38.416Z,1002.28
2019-01-26T09:02:38.402Z,1002.34
2019-01-26T09:03:38.391Z,1002.30
2019-01-26T09:04:38.405Z,1002.33
2019-01-26T09:05:38.370Z,1002.32
2019-01-26T09:06:38.359Z,1002.27
2019-01-26T09:07:38.354Z,1002.28
2019-01-26T09:08:38.337Z,1002.30
2019-01-26T09:09:38.350Z,1002.28
2019-01-26T09:10:38.317Z,1002.32
2019-01-26T09:11:38.313Z,1002.30
2019-01-26T09:12:38.294Z,1002.31
2019-01-26T09:13:38.281Z,1002.33
2019-01-26T09:14:38.295Z,1002.32
2019-01-26T09:15:38.258Z,1002.29
2019-01-26T09:16:38.249Z,1002.32
2019-01-26T09:17:38.236Z,1002.29
2019-01-26T09:18:38.883Z,1002.28
2019-01-26T09:19:38.327Z,1002.30
2019-01-26T09:20:38.202Z,1002.34
2019-01-26T09:21:38.193Z,1002.33
2019-01-26T09:22:38.181Z,1002.32
2019-01-26T09:23:38.170Z,1002.31
2019-01-26T09:24:38.183Z,1002.30
2019-01-26T09:25:38.152Z,1002.27
2019-01-26T09:26:38.136Z,1002.28
2019-01-26T09:27:38.126Z,1002.24
2019-01-26T09:28:38.116Z,1002.31
2019-01-26T09:29:38.128Z,1002.26
2019-01-26T09:30:38.092Z,1002.30
2019-01-26T09:31:38.082Z,1002.31
2019-01-26T09:32:38.071Z,1002.27
2019-01-26T09:33:38.061Z,1002.21
2019-01-26T09:34:38.074Z,1002.16
2019-01-26T09:35:38.037Z,1002.18
2019-01-26T09:36:38.026Z,1002.15
2019-01-26T09:37:38.014Z,1002.18
2019-01-26T09:38:38.003Z,1002.17
2019-01-26T09:39:37.993Z,1002.19
2019-01-26T09:40:38.006Z,1002.16
2019-01-26T09:41:37.970Z,1002.21
2019-01-26T09:42:37.959Z,1002.22
2019-01-26T09:43:37.949Z,1002.21
2019-01-26T09:44:37.962Z,1002.20
2019-01-26T09:45:37.925Z,1002.18
2019-01-26T09:46:37.917Z,1002.17
2019-01-26T09:47:37.903Z,1002.20
2019-01-26T09:48:37.894Z,1002.24
2019-01-26T09:49:37.885Z,1002.21
2019-01-26T09:50:37.897Z,1002.23
2019-01-26T09:51:37.861Z,1002.25
2019-01-26T09:52:37.850Z,1002.20
2019-01-26T09:53:37.837Z,1002.23
2019-01-26T09:54:37.832Z,1002.22
2019-01-26T09:55:37.840Z,1002.25
2019-01-26T09:56:37.804Z,1002.32
2019-01-26T09:57:37.792Z,1002.30
2019-01-26T09:58:37.783Z,1002.17
2019-01-26T09:59:37.772Z,1002.25
2019-01-26T10:00:37.785Z,1002.30
2019-01-26T10:01:37.752Z,1002.21
2019-01-26T10:02:37.737Z,1002.23
2019-01-26T10:03:37.727Z,1002.24
2019-01-26T10:04:37.717Z,1002.23
2019-01-26T10:05:37.729Z,1002.23
2019-01-26T10:06:37.692Z,1002.23
2019-01-26T10:07:37.682Z,1002.24
2019-01-26T10:08:37.671Z,1002.25
2019-01-26T10:09:37.659Z,1002.22
2019-01-26T10:10:37.673Z,1002.28
2019-01-26T10:11:37.638Z,1002.28
2019-01-26T10:12:37.626Z,1002.29
2019-01-26T10:13:37.616Z,1002.23
2019-01-26T10:14:37.605Z,1002.27
2019-01-26T10:15:37.617Z,1002.25
2019-01-26T10:16:37.583Z,1002.24
2019-01-26T10:17:37.574Z,1002.21
2019-01-26T10:18:37.559Z,1002.20
2019-01-26T10:19:37.548Z,1002.17
2019-01-26T10:20:37.564Z,1002.26
2019-01-26T10:21:37.525Z,1002.19
2019-01-26T10:22:37.514Z,1002.19
2019-01-26T10:23:37.505Z,1002.12
2019-01-26T10:24:37.492Z,1002.13
2019-01-26T10:25:37.505Z,1002.06
2019-01-26T10:26:37.470Z,1002.05
2019-01-26T10:27:37.459Z,1002.04
2019-01-26T10:28:37.448Z,1002.03
2019-01-26T10:29:37.438Z,1002.01
2019-01-26T10:30:37.452Z,1001.95
2019-01-26T10:31:37.416Z,1001.92
2019-01-26T10:32:37.405Z,1001.95
2019-01-26T10:33:37.393Z,1001.95
2019-01-26T10:34:37.384Z,1001.89
2019-01-26T10:35:37.394Z,1001.95
2019-01-26T10:36:37.359Z,1001.96
2019-01-26T10:37:37.349Z,1001.95
2019-01-26T10:38:37.338Z,1001.95
2019-01-26T10:39:37.325Z,1001.96
2019-01-26T10:40:37.339Z,1002.01
2019-01-26T10:41:37.303Z,1002.03
2019-01-26T10:42:37.292Z,1002.05
2019-01-26T10:43:37.281Z,1002.02
2019-01-26T10:44:37.271Z,1001.99
2019-01-26T10:45:37.295Z,1002.01
2019-01-26T10:46:37.253Z,1002.04
2019-01-26T10:47:37.236Z,1002.08
2019-01-26T10:48:37.225Z,1002.12
2019-01-26T10:49:37.215Z,1002.09
2019-01-26T10:50:37.230Z,1002.08
2019-01-26T10:51:37.192Z,1002.05
2019-01-26T10:52:37.181Z,1002.09
2019-01-26T10:53:37.171Z,1002.06
2019-01-26T10:54:37.158Z,1002.09
2019-01-26T10:55:37.172Z,1002.08
2019-01-26T10:56:37.135Z,1002.02
2019-01-26T10:57:37.126Z,1002.04
2019-01-26T10:58:37.114Z,1002.03
2019-01-26T10:59:37.102Z,1001.94
2019-01-26T11:00:37.115Z,1001.98
2019-01-26T11:01:37.080Z,1001.98
2019-01-26T11:02:37.075Z,1001.87
2019-01-26T11:03:37.058Z,1001.93
2019-01-26T11:04:37.049Z,1001.93
2019-01-26T11:05:37.058Z,1001.95
2019-01-26T11:06:37.026Z,1001.91
2019-01-26T11:07:37.013Z,1001.88
2019-01-26T11:08:37.002Z,1001.90
2019-01-26T11:09:36.992Z,1001.92
2019-01-26T11:10:37.004Z,1001.91
2019-01-26T11:11:36.971Z,1001.91
2019-01-26T11:12:36.958Z,1001.85
2019-01-26T11:13:36.948Z,1001.79
2019-01-26T11:14:36.935Z,1001.79
2019-01-26T11:15:36.948Z,1001.79
2019-01-26T11:16:36.914Z,1001.75
2019-01-26T11:17:36.904Z,1001.78
2019-01-26T11:18:36.891Z,1001.79
2019-01-26T11:19:36.879Z,1001.76
2019-01-26T11:20:36.870Z,1001.74
2019-01-26T11:21:36.882Z,1001.77
2019-01-26T11:22:36.847Z,1001.76
2019-01-26T11:23:36.835Z,1001.73
2019-01-26T11:24:36.825Z,1001.68
2019-01-26T11:25:36.844Z,1001.64
2019-01-26T11:26:36.802Z,1001.69
2019-01-26T11:27:36.790Z,1001.68
2019-01-26T11:28:36.779Z,1001.66
2019-01-26T11:29:36.770Z,1001.72
2019-01-26T11:30:36.759Z,1001.66
2019-01-26T11:31:36.773Z,1001.72
2019-01-26T11:32:36.735Z,1001.71
2019-01-26T11:33:36.724Z,1001.72
2019-01-26T11:34:36.712Z,1001.72
2019-01-26T11:35:36.702Z,1001.62
2019-01-26T11:36:36.714Z,1001.67
2019-01-26T11:37:36.679Z,1001.62
2019-01-26T11:38:36.668Z,1001.67
2019-01-26T11:39:36.657Z,1001.67
2019-01-26T11:40:36.648Z,1001.61
2019-01-26T11:41:36.659Z,1001.61
2019-01-26T11:42:36.624Z,1001.62
2019-01-26T11:43:36.612Z,1001.56
2019-01-26T11:44:36.601Z,1001.54
2019-01-26T11:45:36.590Z,1001.55
2019-01-26T11:46:36.601Z,1001.52
2019-01-26T11:47:36.566Z,1001.51
2019-01-26T11:48:36.559Z,1001.55
2019-01-26T11:49:36.545Z,1001.40
2019-01-26T11:50:36.534Z,1001.50
2019-01-26T11:51:36.547Z,1001.48
2019-01-26T11:52:36.512Z,1001.44
2019-01-26T11:53:36.501Z,1001.47
2019-01-26T11:54:36.489Z,1001.37
2019-01-26T11:55:36.477Z,1001.46
2019-01-26T11:56:36.495Z,1001.48
2019-01-26T11:57:36.460Z,1001.37
2019-01-26T11:58:36.447Z,1001.42
2019-01-26T11:59:36.433Z,1001.38
2019-01-26T12:00:36.423Z,1001.44
2019-01-26T12:01:36.438Z,1001.33
2019-01-26T12:02:36.404Z,1001.32
2019-01-26T12:03:36.393Z,1001.26
2019-01-26T12:04:36.377Z,1001.24
2019-01-26T12:05:36.367Z,1001.23